Time;durP1;ratioP1;P1;durP2;ratioP2;P2;SDS_P1;SDS_P2;PMS_P1;PMS_P2;Temp;Humidity;BMP_temperature;BMP_pressure;BME280_temperature;BME280_humidity;BME280_pressure;Samples;Min_cycle;Max_cycle;Signal;HPM_P1;HPM_P2
2021/04/12 00:01:08;;;;;;;1.97;1.30;;;4.00;99.90;;;;;;5090186;27;20488;-68
2021/04/12 00:03:44;;;;;;;2.47;1.37;;;4.00;99.90;;;;;;5093694;27;20525;-69
2021/04/12 00:06:16;;;;;;;2.53;1.90;;;3.80;99.90;;;;;;5090978;27;20555;-69
2021/04/12 00:08:50;;;;;;;3.33;2.03;;;3.80;99.90;;;;;;5093366;27;20483;-69
2021/04/12 00:11:27;;;;;;;1.57;1.30;;;3.80;99.90;;;;;;5100836;27;20740;-69
2021/04/12 00:13:57;;;;;;;3.20;2.43;;;3.70;99.90;;;;;;5090359;27;20435;-69
2021/04/12 00:16:29;;;;;;;2.00;1.73;;;3.70;99.90;;;;;;5091069;27;20554;-68
2021/04/12 00:18:59;;;;;;;2.23;1.60;;;3.60;99.90;;;;;;5093859;27;20468;-67
2021/04/12 00:21:31;;;;;;;1.93;1.80;;;3.60;99.90;;;;;;5091145;27;20961;-68
2021/04/12 00:24:03;;;;;;;5.33;1.80;;;3.40;99.90;;;;;;5083673;27;20457;-68
2021/04/12 00:26:33;;;;;;;3.50;2.00;;;3.50;99.90;;;;;;5089443;27;20975;-68
2021/04/12 00:29:05;;;;;;;1.83;1.70;;;3.40;99.90;;;;;;5091723;27;20484;-68
2021/04/12 00:31:38;;;;;;;2.30;1.30;;;3.40;99.90;;;;;;5094953;27;23041;-66
2021/04/12 00:34:10;;;;;;;1.53;1.30;;;3.30;99.90;;;;;;5093502;27;20555;-67
2021/04/12 00:36:41;;;;;;;6.43;2.20;;;3.20;99.90;;;;;;5092487;27;22542;-67
2021/04/12 00:39:14;;;;;;;1.70;1.60;;;3.30;99.90;;;;;;5094919;27;20451;-67
2021/04/12 00:42:11;;;;;;;2.23;1.90;;;3.40;99.90;;;;;;5090032;28;20493;-67
2021/04/12 00:45:02;;;;;;;1.93;1.60;;;3.30;99.90;;;;;;5090842;27;20501;-67
2021/04/12 00:47:40;;;;;;;2.40;1.63;;;3.30;99.90;;;;;;5097632;27;20470;-68
2021/04/12 00:50:22;;;;;;;1.80;1.33;;;3.30;99.90;;;;;;5093198;27;20535;-67
2021/04/12 00:53:17;;;;;;;1.30;1.03;;;3.40;99.90;;;;;;5088266;27;20463;-67
2021/04/12 00:55:48;;;;;;;2.23;1.97;;;3.50;99.90;;;;;;5086772;27;20518;-67
2021/04/12 00:58:22;;;;;;;7.70;1.30;;;3.50;99.90;;;;;;5091808;27;20515;-67
2021/04/12 01:01:01;;;;;;;1.83;1.63;;;3.40;99.90;;;;;;5089120;28;20882;-67
2021/04/12 01:03:54;;;;;;;2.30;1.60;;;3.30;99.90;;;;;;5085521;28;21073;-67
2021/04/12 01:06:31;;;;;;;4.10;2.23;;;3.20;99.90;;;;;;5077083;27;21011;-67
2021/04/12 01:09:17;;;;;;;2.37;1.70;;;3.20;99.90;;;;;;5091330;27;20419;-67
2021/04/12 01:12:20;;;;;;;2.50;1.40;;;3.20;99.90;;;;;;5084119;27;20535;-69
2021/04/12 01:15:18;;;;;;;1.43;1.30;;;3.10;99.90;;;;;;5089588;27;20457;-66
2021/04/12 01:18:01;;;;;;;1.50;1.40;;;3.00;99.90;;;;;;5064458;27;20513;-67
2021/04/12 01:20:58;;;;;;;2.30;2.07;;;3.20;99.90;;;;;;5085692;28;20451;-66
2021/04/12 01:23:56;;;;;;;2.00;1.80;;;3.30;99.90;;;;;;5085538;27;20457;-68
2021/04/12 01:27:13;;;;;;;5.00;1.80;;;3.20;99.90;;;;;;5088283;27;21624;-68
2021/04/12 01:30:25;;;;;;;2.13;1.60;;;3.30;99.90;;;;;;5085448;27;20477;-69
2021/04/12 01:33:27;;;;;;;2.03;1.20;;;3.20;99.90;;;;;;5029628;28;20536;-68
2021/04/12 01:36:27;;;;;;;2.50;2.10;;;3.10;99.90;;;;;;5089954;28;20424;-67
2021/04/12 01:39:06;;;;;;;2.23;1.53;;;3.10;99.90;;;;;;5088837;28;20488;-68
2021/04/12 01:41:38;;;;;;;10.07;2.60;;;3.10;99.90;;;;;;5086223;28;20579;-68
2021/04/12 01:44:27;;;;;;;3.73;2.03;;;3.10;99.90;;;;;;5087725;28;20987;-67
2021/04/12 01:47:05;;;;;;;1.40;1.30;;;3.20;99.90;;;;;;5082220;28;20933;-67
2021/04/12 01:50:08;;;;;;;2.40;1.73;;;3.20;99.90;;;;;;5084703;28;20988;-68
2021/04/12 01:52:56;;;;;;;2.60;1.83;;;3.30;99.90;;;;;;5081945;28;20969;-67
2021/04/12 01:55:30;;;;;;;1.33;1.10;;;3.10;99.90;;;;;;5085034;28;20572;-68
2021/04/12 01:58:30;;;;;;;2.87;2.10;;;3.10;99.90;;;;;;5081310;28;20431;-68
2021/04/12 02:01:16;;;;;;;2.80;1.53;;;3.10;99.90;;;;;;5040012;28;20895;-69
2021/04/12 02:03:58;;;;;;;3.63;1.67;;;3.20;99.90;;;;;;5092037;27;20456;-67
2021/04/12 02:06:39;;;;;;;2.33;1.03;;;3.10;99.90;;;;;;5081232;27;20436;-68
2021/04/12 02:09:43;;;;;;;2.77;2.43;;;3.10;99.90;;;;;;5089565;27;20543;-69
2021/04/12 02:12:19;;;;;;;1.93;1.77;;;3.20;99.90;;;;;;5073841;27;20962;-68
2021/04/12 02:15:06;;;;;;;2.20;1.73;;;3.20;99.90;;;;;;5079174;28;20466;-69
2021/04/12 02:17:48;;;;;;;3.67;2.43;;;3.10;99.90;;;;;;5089097;27;20551;-68
2021/04/12 02:20:21;;;;;;;1.40;1.10;;;3.00;99.90;;;;;;5091539;27;20480;-68
2021/04/12 02:23:29;;;;;;;6.03;2.70;;;2.90;99.90;;;;;;5083932;27;20850;-68
2021/04/12 02:26:05;;;;;;;2.17;1.40;;;2.60;99.90;;;;;;5080230;27;20488;-69
2021/04/12 02:28:51;;;;;;;1.97;1.70;;;2.70;99.90;;;;;;5088749;27;20631;-69
2021/04/12 02:31:39;;;;;;;3.27;2.37;;;2.70;99.90;;;;;;5086620;27;20478;-68
2021/04/12 02:34:11;;;;;;;2.80;1.53;;;2.70;99.90;;;;;;5094047;27;20527;-68
2021/04/12 02:36:49;;;;;;;1.77;1.63;;;2.60;99.90;;;;;;5086064;27;20896;-69
2021/04/12 02:39:31;;;;;;;2.07;1.77;;;2.60;99.90;;;;;;5085869;27;20902;-68
2021/04/12 02:42:10;;;;;;;2.40;1.63;;;2.70;99.90;;;;;;5090499;27;20443;-68
2021/04/12 02:45:08;;;;;;;4.20;1.60;;;2.80;99.90;;;;;;5087117;27;20434;-67
2021/04/12 02:47:56;;;;;;;1.40;1.10;;;2.60;99.90;;;;;;5061532;27;20973;-69
2021/04/12 02:51:02;;;;;;;2.77;2.10;;;2.70;99.90;;;;;;5088297;27;21117;-68
2021/04/12 02:53:54;;;;;;;2.50;1.50;;;2.90;99.90;;;;;;5064581;27;20454;-69
2021/04/12 02:56:33;;;;;;;8.83;2.40;;;2.90;99.90;;;;;;5088576;28;20853;-69
2021/04/12 02:59:18;;;;;;;3.13;2.10;;;2.90;99.90;;;;;;5090580;27;21570;-68
2021/04/12 03:02:23;;;;;;;3.03;1.83;;;2.80;99.90;;;;;;5094770;27;20511;-68
2021/04/12 03:05:09;;;;;;;2.37;2.17;;;2.80;99.90;;;;;;5096229;27;20519;-68
2021/04/12 03:08:18;;;;;;;1.37;1.27;;;2.80;99.90;;;;;;5087568;27;21970;-69
2021/04/12 03:10:59;;;;;;;8.70;2.30;;;2.60;99.90;;;;;;4989818;28;21089;-67
2021/04/12 03:14:01;;;;;;;1.70;1.40;;;2.70;99.90;;;;;;5084102;27;20460;-69
2021/04/12 03:16:54;;;;;;;2.20;1.80;;;2.70;99.90;;;;;;5086143;27;20436;-68
2021/04/12 03:19:46;;;;;;;4.77;3.33;;;2.80;99.90;;;;;;5076160;28;20534;-69
2021/04/12 03:22:26;;;;;;;2.03;1.87;;;2.70;99.90;;;;;;5090759;27;20794;-68
2021/04/12 03:25:31;;;;;;;2.03;1.50;;;2.70;99.90;;;;;;5091590;27;20468;-67
2021/04/12 03:28:22;;;;;;;1.67;1.57;;;2.60;99.90;;;;;;5089175;27;20469;-69
2021/04/12 03:31:04;;;;;;;2.60;2.27;;;2.60;99.90;;;;;;5092766;27;20543;-69
2021/04/12 03:33:38;;;;;;;1.40;1.30;;;2.60;99.90;;;;;;5084748;27;20451;-68
2021/04/12 03:36:16;;;;;;;4.47;3.00;;;2.70;99.90;;;;;;5093511;27;20496;-68
2021/04/12 03:38:49;;;;;;;4.40;3.03;;;2.80;99.90;;;;;;5091213;27;21056;-67
2021/04/12 03:41:54;;;;;;;2.37;2.17;;;2.70;99.90;;;;;;5095104;28;22213;-68
2021/04/12 03:44:34;;;;;;;3.67;2.43;;;2.70;99.90;;;;;;5102528;27;20892;-68
2021/04/12 03:47:28;;;;;;;7.30;2.93;;;2.60;99.90;;;;;;5083106;27;20534;-68
2021/04/12 03:50:12;;;;;;;3.20;2.20;;;2.70;99.90;;;;;;5090271;28;20497;-68
2021/04/12 03:52:58;;;;;;;3.40;2.53;;;2.70;99.90;;;;;;5089501;27;20428;-68
2021/04/12 03:56:05;;;;;;;5.53;3.70;;;2.70;99.90;;;;;;5081778;27;20432;-68
2021/04/12 03:59:07;;;;;;;3.00;2.17;;;2.50;99.90;;;;;;5086110;27;26958;-68
2021/04/12 04:01:50;;;;;;;6.47;3.90;;;2.50;99.90;;;;;;5093532;27;20434;-67
2021/04/12 04:04:39;;;;;;;8.10;2.33;;;2.50;99.90;;;;;;5094433;27;20880;-68
2021/04/12 04:07:33;;;;;;;2.37;1.93;;;2.60;99.90;;;;;;5097046;27;20444;-67
2021/04/12 04:10:30;;;;;;;3.87;2.97;;;2.80;99.90;;;;;;5087865;27;20440;-68
2021/04/12 04:13:09;;;;;;;11.90;3.33;;;2.80;99.90;;;;;;5100291;27;20438;-67
2021/04/12 04:15:44;;;;;;;6.40;3.93;;;2.70;99.90;;;;;;5100032;27;20427;-67
2021/04/12 04:18:23;;;;;;;8.53;2.90;;;2.70;99.90;;;;;;5094122;27;20459;-67
2021/04/12 04:21:14;;;;;;;3.57;3.27;;;2.60;99.90;;;;;;5107768;27;20533;-67
2021/04/12 04:23:51;;;;;;;3.10;2.80;;;2.60;99.90;;;;;;5103862;27;20824;-68
2021/04/12 04:26:49;;;;;;;3.67;2.43;;;2.60;99.90;;;;;;5092656;27;20419;-68
2021/04/12 04:29:40;;;;;;;6.13;3.93;;;2.50;99.90;;;;;;5090467;27;21197;-68
2021/04/12 04:32:34;;;;;;;11.13;3.40;;;2.50;99.90;;;;;;5095316;27;20545;-66
2021/04/12 04:35:22;;;;;;;6.63;5.00;;;2.40;99.90;;;;;;5098188;27;20540;-67
2021/04/12 04:38:27;;;;;;;8.13;5.10;;;2.40;99.90;;;;;;5098804;27;20419;-68
2021/04/12 04:41:14;;;;;;;3.20;2.53;;;2.40;99.90;;;;;;5109195;27;20504;-67
2021/04/12 04:43:59;;;;;;;4.80;3.47;;;2.20;99.90;;;;;;5095030;27;20445;-67
2021/04/12 04:46:50;;;;;;;6.87;3.77;;;2.30;99.90;;;;;;5092254;27;20458;-67
2021/04/12 04:49:54;;;;;;;4.13;2.20;;;2.30;99.90;;;;;;5081708;27;21596;-68
2021/04/12 04:52:32;;;;;;;4.03;3.63;;;2.20;99.90;;;;;;5072629;27;20599;-68
2021/04/12 04:55:28;;;;;;;2.50;2.00;;;2.20;99.90;;;;;;5079537;27;20483;-66
2021/04/12 04:58:21;;;;;;;5.00;3.27;;;2.20;99.90;;;;;;5079358;27;20550;-67
2021/04/12 05:01:03;;;;;;;4.80;3.40;;;2.30;99.90;;;;;;5069669;27;20451;-66
2021/04/12 05:04:07;;;;;;;2.47;2.20;;;2.40;99.90;;;;;;5080657;27;20465;-68
2021/04/12 05:07:06;;;;;;;3.70;3.20;;;2.40;99.90;;;;;;5088728;27;20583;-68
2021/04/12 05:10:22;;;;;;;7.97;2.93;;;2.30;99.90;;;;;;5089743;27;20564;-66
2021/04/12 05:13:15;;;;;;;5.70;5.13;;;2.20;99.90;;;;;;5090170;27;21196;-67
2021/04/12 05:16:25;;;;;;;4.60;2.93;;;2.20;99.90;;;;;;5074582;28;20530;-68
2021/04/12 05:19:14;;;;;;;2.73;2.53;;;2.30;99.90;;;;;;5079540;27;20494;-67
2021/04/12 05:22:14;;;;;;;3.37;3.03;;;2.20;99.90;;;;;;5079259;27;20449;-66
2021/04/12 05:24:58;;;;;;;5.80;4.90;;;2.30;99.90;;;;;;5076880;28;21486;-67
2021/04/12 05:28:12;;;;;;;4.17;3.77;;;2.40;99.90;;;;;;5085734;27;20563;-67
2021/04/12 05:31:10;;;;;;;19.60;4.00;;;2.40;99.90;;;;;;5079131;27;20451;-67
2021/04/12 05:34:02;;;;;;;7.30;4.27;;;2.60;99.90;;;;;;5048639;28;20452;-67
2021/04/12 05:36:51;;;;;;;6.27;3.97;;;2.50;99.90;;;;;;5081466;28;20876;-68
2021/04/12 05:39:57;;;;;;;3.93;2.67;;;2.40;99.90;;;;;;5088417;27;20509;-67
2021/04/12 05:42:39;;;;;;;3.53;3.23;;;2.50;99.90;;;;;;5067816;28;20551;-68
2021/04/12 05:45:43;;;;;;;3.80;3.50;;;2.50;99.90;;;;;;5107533;27;20463;-68
2021/04/12 05:48:51;;;;;;;8.23;5.07;;;2.60;99.90;;;;;;5092679;27;20508;-69
2021/04/12 05:51:34;;;;;;;3.90;3.33;;;2.60;99.90;;;;;;5040356;28;20506;-68
2021/04/12 05:54:36;;;;;;;7.03;4.67;;;2.90;99.90;;;;;;5099631;28;20985;-68
2021/04/12 05:57:30;;;;;;;5.97;4.27;;;3.50;99.90;;;;;;5101957;28;20458;-68
2021/04/12 06:00:19;;;;;;;5.77;4.80;;;4.50;99.90;;;;;;5106248;28;20467;-67
2021/04/12 06:03:00;;;;;;;6.30;3.20;;;5.50;99.90;;;;;;5096007;28;20440;-67
2021/04/12 06:05:34;;;;;;;4.27;3.50;;;6.30;99.90;;;;;;5099067;28;20920;-68
2021/04/12 06:08:39;;;;;;;6.20;5.70;;;6.10;99.90;;;;;;5100596;28;20559;-68
2021/04/12 06:11:47;;;;;;;8.10;4.07;;;6.20;99.90;;;;;;5002084;28;20494;-67
2021/04/12 06:14:44;;;;;;;8.27;3.90;;;6.40;99.90;;;;;;5098771;28;20544;-68
2021/04/12 06:17:38;;;;;;;4.10;3.60;;;6.80;99.90;;;;;;5102721;28;20482;-67
2021/04/12 06:20:37;;;;;;;4.00;3.70;;;7.10;99.90;;;;;;5094352;28;20529;-68
2021/04/12 06:23:35;;;;;;;4.80;3.60;;;6.70;99.90;;;;;;5105718;28;20461;-69
2021/04/12 06:26:41;;;;;;;3.83;3.20;;;6.00;99.90;;;;;;5097335;28;20541;-69
2021/04/12 06:29:24;;;;;;;3.60;3.17;;;5.70;99.90;;;;;;5099402;28;20464;-67
2021/04/12 06:32:25;;;;;;;4.43;2.83;;;5.40;99.90;;;;;;5104056;28;20488;-69
2021/04/12 06:35:25;;;;;;;7.40;6.03;;;5.10;99.90;;;;;;5104441;28;20779;-68
2021/04/12 06:38:25;;;;;;;4.13;3.60;;;5.50;99.90;;;;;;5100031;28;20457;-68
2021/04/12 06:41:19;;;;;;;4.47;3.33;;;6.40;99.90;;;;;;5104911;28;20795;-69
2021/04/12 06:44:29;;;;;;;5.60;4.00;;;6.90;99.90;;;;;;5099846;28;20781;-69
2021/04/12 06:47:36;;;;;;;4.33;3.70;;;7.60;99.90;;;;;;5099411;28;20973;-69
2021/04/12 06:50:59;;;;;;;9.77;3.80;;;7.80;99.90;;;;;;5105623;28;20478;-66
2021/04/12 06:54:14;;;;;;;15.43;5.27;;;7.10;99.90;;;;;;5038873;28;20467;-67
2021/04/12 06:57:16;;;;;;;6.40;3.43;;;6.60;99.90;;;;;;4979947;28;20585;-68
2021/04/12 07:00:14;;;;;;;6.10;4.53;;;6.60;99.90;;;;;;5038748;28;20482;-66
2021/04/12 07:03:10;;;;;;;4.47;3.27;;;6.60;99.90;;;;;;5098262;28;20431;-67
2021/04/12 07:06:04;;;;;;;6.37;4.73;;;6.50;99.90;;;;;;5101102;27;20801;-68
2021/04/12 07:08:44;;;;;;;4.50;3.30;;;6.50;99.90;;;;;;5103987;27;20551;-67
2021/04/12 07:12:07;;;;;;;3.67;3.20;;;6.60;99.90;;;;;;5098533;28;20522;-67
2021/04/12 07:15:22;;;;;;;3.00;2.80;;;6.70;99.90;;;;;;5094640;27;20514;-68
2021/04/12 07:18:28;;;;;;;8.70;3.13;;;6.50;99.90;;;;;;5102237;27;20476;-68
2021/04/12 07:21:27;;;;;;;7.27;2.97;;;6.50;99.90;;;;;;5099819;28;20466;-66
2021/04/12 07:24:49;;;;;;;5.43;4.30;;;6.20;99.90;;;;;;5105624;28;20472;-68
2021/04/12 07:27:57;;;;;;;9.03;3.63;;;6.10;99.90;;;;;;5003588;28;20543;-67
2021/04/12 07:31:04;;;;;;;4.47;3.03;;;6.10;99.90;;;;;;5105200;27;20532;-67
2021/04/12 07:33:53;;;;;;;7.83;3.80;;;6.00;99.90;;;;;;5103777;28;20451;-67
2021/04/12 07:36:47;;;;;;;5.00;3.43;;;6.00;99.90;;;;;;5100510;28;20431;-68
2021/04/12 07:39:58;;;;;;;7.60;4.60;;;6.10;99.90;;;;;;5098533;27;20503;-67
2021/04/12 07:42:59;;;;;;;9.23;3.80;;;6.40;99.90;;;;;;5007284;28;20921;-67
2021/04/12 07:46:11;;;;;;;3.53;3.00;;;6.70;99.90;;;;;;5098100;27;20458;-67
2021/04/12 07:49:11;;;;;;;7.07;4.53;;;7.00;99.90;;;;;;5102277;27;20451;-68
2021/04/12 07:52:15;;;;;;;21.13;4.00;;;7.30;99.90;;;;;;5100081;28;20489;-67
2021/04/12 07:55:17;;;;;;;3.93;3.30;;;7.10;99.90;;;;;;5100292;27;20444;-67
2021/04/12 07:58:20;;;;;;;5.23;3.20;;;7.60;99.90;;;;;;5097757;28;20847;-67
2021/04/12 08:01:27;;;;;;;4.73;2.27;;;8.90;99.90;;;;;;5104767;27;20519;-67
2021/04/12 08:04:32;;;;;;;7.87;3.73;;;9.70;99.90;;;;;;4997009;28;21217;-68
2021/04/12 08:07:36;;;;;;;3.97;3.07;;;9.80;99.90;;;;;;5105879;28;20442;-69
2021/04/12 08:10:42;;;;;;;18.50;5.50;;;9.60;99.90;;;;;;5102967;28;20549;-68
2021/04/12 08:13:48;;;;;;;4.50;3.50;;;9.40;99.90;;;;;;5104398;28;21009;-67
2021/04/12 08:17:12;;;;;;;5.63;3.50;;;9.20;99.90;;;;;;5097167;27;20929;-68
2021/04/12 08:20:23;;;;;;;4.20;3.77;;;8.80;99.90;;;;;;5014774;28;20468;-68
2021/04/12 08:23:42;;;;;;;3.10;2.80;;;8.30;99.90;;;;;;5103003;28;20826;-68
2021/04/12 08:26:55;;;;;;;6.13;3.50;;;8.40;99.90;;;;;;5105896;28;20805;-67
2021/04/12 08:30:11;;;;;;;5.47;3.60;;;8.10;99.90;;;;;;5101846;27;20500;-68
2021/04/12 08:33:25;;;;;;;18.30;4.30;;;8.40;99.90;;;;;;5102526;27;20462;-67
2021/04/12 08:36:28;;;;;;;5.87;3.27;;;9.30;99.90;;;;;;5105703;28;20498;-67
2021/04/12 08:39:42;;;;;;;4.80;4.40;;;9.30;99.90;;;;;;5104424;27;20473;-68
2021/04/12 08:42:37;;;;;;;4.40;2.53;;;9.40;99.90;;;;;;5095833;27;21005;-67
2021/04/12 08:45:46;;;;;;;4.37;3.63;;;9.90;99.90;;;;;;5103831;28;20830;-69
2021/04/12 08:48:22;;;;;;;6.37;4.80;;;10.60;99.90;;;;;;5078518;28;20484;-69
2021/04/12 08:51:12;;;;;;;7.30;5.10;;;11.10;99.90;;;;;;5104981;28;20535;-67
2021/04/12 08:54:21;;;;;;;8.40;4.57;;;12.10;99.90;;;;;;5096736;27;20474;-67
2021/04/12 08:57:27;;;;;;;9.03;5.17;;;12.40;99.90;;;;;;5100243;28;20549;-67
2021/04/12 09:00:32;;;;;;;7.00;5.60;;;12.00;99.90;;;;;;5103096;28;20508;-67
2021/04/12 09:03:41;;;;;;;11.73;5.40;;;11.20;99.90;;;;;;5080571;27;20434;-69
2021/04/12 09:06:43;;;;;;;3.33;2.97;;;10.40;99.90;;;;;;5019390;27;20427;-67
2021/04/12 09:10:06;;;;;;;4.77;3.50;;;9.90;99.90;;;;;;5096302;27;21515;-67
2021/04/12 09:13:00;;;;;;;11.50;5.53;;;9.20;99.90;;;;;;5100594;28;20472;-68
2021/04/12 09:16:12;;;;;;;2.47;2.27;;;9.20;99.90;;;;;;5094546;28;20453;-67
2021/04/12 09:19:05;;;;;;;10.40;6.00;;;9.20;99.90;;;;;;5097922;27;20424;-67
2021/04/12 09:21:56;;;;;;;11.00;4.20;;;9.30;99.90;;;;;;5099812;28;20949;-68
2021/04/12 09:24:50;;;;;;;7.60;5.20;;;9.50;99.90;;;;;;5102449;27;20522;-68
2021/04/12 09:27:43;;;;;;;6.60;5.23;;;9.70;99.90;;;;;;5096066;28;20472;-68
2021/04/12 09:30:45;;;;;;;5.13;3.93;;;9.60;99.90;;;;;;5099228;28;20451;-68
2021/04/12 09:33:37;;;;;;;5.07;4.57;;;10.10;99.90;;;;;;5101455;28;20807;-67
2021/04/12 09:36:21;;;;;;;3.60;3.30;;;10.70;99.90;;;;;;5098408;28;20478;-66
2021/04/12 09:39:32;;;;;;;5.40;3.40;;;10.40;99.90;;;;;;5100471;28;20465;-67
2021/04/12 09:42:41;;;;;;;2.90;2.70;;;10.20;99.90;;;;;;5054191;28;20427;-68
2021/04/12 09:45:32;;;;;;;2.23;1.90;;;10.70;99.90;;;;;;5098672;28;20521;-67
2021/04/12 09:48:35;;;;;;;4.27;3.53;;;11.00;99.90;;;;;;5096954;28;20519;-67
2021/04/12 09:51:45;;;;;;;4.00;3.50;;;11.00;99.90;;;;;;5101400;27;21038;-68
2021/04/12 09:55:02;;;;;;;3.50;3.20;;;11.70;99.90;;;;;;5099250;28;20878;-68
2021/04/12 09:57:57;;;;;;;5.83;3.23;;;10.90;99.90;;;;;;5099103;28;20507;-69
2021/04/12 10:01:00;;;;;;;7.90;3.30;;;11.60;99.90;;;;;;5102182;28;20480;-68
2021/04/12 10:04:14;;;;;;;4.63;3.60;;;11.70;99.90;;;;;;5102685;28;20464;-68
2021/04/12 10:07:07;;;;;;;2.40;2.20;;;11.00;99.90;;;;;;5062318;28;20489;-66
2021/04/12 10:09:54;;;;;;;11.13;5.67;;;10.40;99.90;;;;;;5097307;28;20509;-67
2021/04/12 10:12:30;;;;;;;2.37;2.13;;;9.80;99.90;;;;;;5089865;28;20443;-67
2021/04/12 10:15:02;;;;;;;4.70;2.30;;;9.40;99.90;;;;;;5103817;28;20467;-68
2021/04/12 10:17:38;;;;;;;5.33;2.20;;;9.10;99.90;;;;;;5099326;28;20468;-69
2021/04/12 10:20:11;;;;;;;2.03;1.67;;;8.50;99.90;;;;;;5100290;28;20481;-67
2021/04/12 10:22:53;;;;;;;2.27;2.03;;;8.30;99.90;;;;;;5103514;28;20549;-68
2021/04/12 10:25:27;;;;;;;1.70;1.60;;;8.10;99.90;;;;;;5096373;28;20428;-68
2021/04/12 10:28:02;;;;;;;2.43;1.50;;;8.10;99.90;;;;;;5103214;28;20451;-68
2021/04/12 10:30:37;;;;;;;2.53;2.13;;;8.30;99.90;;;;;;5103456;27;20458;-66
2021/04/12 10:33:08;;;;;;;4.87;1.57;;;8.60;99.90;;;;;;5103342;27;20457;-68
2021/04/12 10:35:43;;;;;;;4.17;1.23;;;9.10;99.90;;;;;;5102668;27;20478;-68
2021/04/12 10:38:20;;;;;;;1.57;1.47;;;9.70;99.90;;;;;;5099107;28;20449;-67
2021/04/12 10:40:51;;;;;;;2.20;2.00;;;10.00;99.90;;;;;;5101894;28;20472;-68
2021/04/12 10:43:22;;;;;;;1.97;1.73;;;10.20;99.90;;;;;;5103818;28;20487;-69
2021/04/12 10:45:58;;;;;;;1.40;1.30;;;9.80;99.90;;;;;;5100009;27;21033;-68
2021/04/12 10:48:28;;;;;;;2.80;1.27;;;9.90;99.90;;;;;;5102730;28;20518;-68
2021/04/12 10:51:22;;;;;;;6.67;2.73;;;10.50;99.90;;;;;;5102742;27;20455;-68
2021/04/12 10:54:21;;;;;;;2.90;1.63;;;12.10;99.90;;;;;;5102503;28;20461;-69
2021/04/12 10:56:51;;;;;;;1.97;1.83;;;13.40;99.90;;;;;;5104615;28;20465;-69
2021/04/12 10:59:47;;;;;;;3.03;2.83;;;14.00;99.90;;;;;;5099180;27;20491;-68
2021/04/12 11:02:21;;;;;;;4.90;2.57;;;13.50;99.90;;;;;;5079481;27;20514;-68
2021/04/12 11:04:59;;;;;;;3.87;2.10;;;13.50;99.90;;;;;;5098776;28;20550;-69
2021/04/12 11:07:43;;;;;;;1.90;1.50;;;13.20;99.90;;;;;;5103779;27;20555;-68
2021/04/12 11:10:35;;;;;;;2.53;2.27;;;12.50;99.90;;;;;;5103214;28;20564;-69
2021/04/12 11:13:06;;;;;;;6.90;3.10;;;12.50;99.90;;;;;;5103263;28;20452;-69
2021/04/12 11:15:46;;;;;;;5.20;4.00;;;13.90;99.90;;;;;;5100110;28;21004;-67
2021/04/12 11:18:30;;;;;;;2.50;2.30;;;14.00;98.20;;;;;;5099333;28;20487;-68
2021/04/12 11:21:06;;;;;;;1.50;1.40;;;12.90;99.90;;;;;;5099556;28;20570;-68
2021/04/12 11:23:37;;;;;;;1.70;1.40;;;10.50;99.90;;;;;;5107737;27;20459;-68
2021/04/12 11:26:14;;;;;;;1.37;1.20;;;8.70;99.90;;;;;;5101491;27;20457;-68
2021/04/12 11:28:50;;;;;;;1.60;1.20;;;8.10;99.90;;;;;;5102441;27;20477;-67
2021/04/12 11:31:44;;;;;;;2.90;0.90;;;8.00;99.90;;;;;;5102399;27;20476;-69
2021/04/12 11:34:19;;;;;;;3.63;1.00;;;7.90;99.90;;;;;;5091648;28;20449;-67
2021/04/12 11:37:04;;;;;;;1.23;1.10;;;7.60;99.90;;;;;;5104682;27;20846;-68
2021/04/12 11:39:34;;;;;;;1.10;1.00;;;7.00;99.90;;;;;;5104356;27;20473;-69
2021/04/12 11:42:05;;;;;;;2.03;1.33;;;6.60;99.90;;;;;;5107925;28;20475;-68
2021/04/12 11:44:37;;;;;;;2.13;1.93;;;6.80;99.90;;;;;;5105861;28;20450;-68
2021/04/12 11:47:36;;;;;;;1.10;0.90;;;7.10;99.90;;;;;;5101756;27;20821;-69
2021/04/12 11:50:21;;;;;;;1.30;1.20;;;8.60;99.90;;;;;;5105555;28;20494;-69
2021/04/12 11:52:56;;;;;;;1.47;1.00;;;9.00;99.90;;;;;;5103693;28;20424;-69
2021/04/12 11:55:38;;;;;;;1.30;1.17;;;8.80;99.90;;;;;;5105717;27;20843;-68
2021/04/12 11:58:14;;;;;;;1.27;1.00;;;10.00;99.90;;;;;;5095383;27;20449;-68
2021/04/12 12:00:49;;;;;;;1.73;1.63;;;11.70;99.90;;;;;;5103905;28;20601;-68
2021/04/12 12:03:32;;;;;;;1.10;0.83;;;12.40;99.90;;;;;;5097384;28;20457;-69
2021/04/12 12:06:08;;;;;;;1.30;0.93;;;13.40;99.90;;;;;;5096224;28;20984;-68
2021/04/12 12:08:54;;;;;;;1.10;0.97;;;13.90;99.90;;;;;;5100014;27;20549;-70
2021/04/12 12:11:32;;;;;;;1.13;0.80;;;14.30;98.90;;;;;;5104025;27;20845;-69
2021/04/12 12:14:06;;;;;;;2.27;2.07;;;13.50;95.30;;;;;;5102951;27;20451;-68
2021/04/12 12:16:35;;;;;;;2.60;1.27;;;13.50;96.20;;;;;;5100682;28;20448;-68
2021/04/12 12:19:06;;;;;;;1.73;1.63;;;13.20;98.60;;;;;;5102261;28;20473;-66
2021/04/12 12:21:41;;;;;;;5.07;1.57;;;13.20;97.30;;;;;;5104536;28;20460;-68
2021/04/12 12:24:13;;;;;;;1.27;0.90;;;12.30;97.70;;;;;;5101778;28;20456;-67
2021/04/12 12:26:46;;;;;;;1.10;0.87;;;11.10;99.40;;;;;;5092878;27;20450;-67
2021/04/12 12:29:27;;;;;;;2.37;1.73;;;10.20;99.90;;;;;;5102417;27;20507;-68
2021/04/12 12:32:27;;;;;;;2.63;1.90;;;10.50;99.90;;;;;;5101342;27;20430;-68
2021/04/12 12:35:06;;;;;;;2.30;1.63;;;11.80;99.90;;;;;;5098819;28;20809;-66
2021/04/12 12:37:43;;;;;;;1.57;1.47;;;13.10;99.90;;;;;;5102695;28;21160;-67
2021/04/12 12:40:13;;;;;;;5.10;1.87;;;14.20;99.80;;;;;;5103337;28;21133;-67
2021/04/12 12:42:44;;;;;;;2.27;2.07;;;14.40;95.10;;;;;;5104185;28;20489;-68
2021/04/12 12:45:15;;;;;;;1.63;1.53;;;14.80;94.70;;;;;;5101164;28;20499;-67
2021/04/12 12:47:46;;;;;;;3.83;2.20;;;14.60;95.60;;;;;;5102749;27;20472;-69
2021/04/12 12:50:20;;;;;;;1.30;1.10;;;15.00;93.80;;;;;;5105160;27;20522;-68
2021/04/12 12:52:52;;;;;;;1.60;1.50;;;15.30;92.00;;;;;;5099640;28;20457;-68
2021/04/12 12:55:25;;;;;;;2.33;1.93;;;15.40;92.00;;;;;;5099007;27;20480;-69
2021/04/12 12:57:53;;;;;;;1.97;1.30;;;15.50;91.50;;;;;;5099609;28;20446;-69
2021/04/12 13:00:35;;;;;;;1.80;1.50;;;15.90;86.00;;;;;;5103214;28;21119;-68
2021/04/12 13:03:15;;;;;;;1.97;1.47;;;15.70;85.90;;;;;;5106330;28;20518;-69
2021/04/12 13:05:43;;;;;;;2.40;1.77;;;15.50;88.30;;;;;;5097238;27;21718;-69
2021/04/12 13:08:12;;;;;;;1.50;1.30;;;15.00;88.90;;;;;;5100556;28;20489;-68
2021/04/12 13:10:40;;;;;;;4.30;1.23;;;15.00;86.90;;;;;;5099942;28;20950;-68
2021/04/12 13:13:17;;;;;;;2.40;1.67;;;14.70;82.70;;;;;;5103171;27;20594;-68
2021/04/12 13:15:45;;;;;;;2.43;2.03;;;15.10;86.20;;;;;;5102050;27;20465;-68
2021/04/12 13:18:24;;;;;;;2.30;2.10;;;14.90;83.30;;;;;;5099745;28;21046;-68
2021/04/12 13:20:56;;;;;;;2.00;1.57;;;14.10;84.40;;;;;;5104816;28;20830;-67
2021/04/12 13:23:25;;;;;;;2.40;2.03;;;12.90;87.70;;;;;;5098996;28;20491;-68
2021/04/12 13:25:53;;;;;;;5.50;2.00;;;13.00;90.30;;;;;;5101445;28;20453;-68
2021/04/12 13:28:22;;;;;;;4.13;2.57;;;13.90;88.00;;;;;;5101425;28;20854;-67
2021/04/12 13:31:01;;;;;;;8.20;2.43;;;15.20;85.90;;;;;;5098619;28;20905;-69
2021/04/12 13:33:33;;;;;;;2.60;2.40;;;15.50;81.20;;;;;;5100912;27;20472;-69
2021/04/12 13:36:07;;;;;;;4.30;2.40;;;16.60;86.00;;;;;;5101246;28;20984;-68
2021/04/12 13:38:37;;;;;;;2.60;2.40;;;16.60;77.10;;;;;;5098217;28;20460;-68
2021/04/12 13:41:09;;;;;;;3.43;2.33;;;16.20;79.80;;;;;;5102399;27;21021;-68
2021/04/12 13:43:38;;;;;;;3.40;2.40;;;15.30;78.70;;;;;;5104424;28;20985;-69
2021/04/12 13:46:17;;;;;;;3.30;2.80;;;15.20;83.10;;;;;;5096828;28;20521;-68
2021/04/12 13:48:51;;;;;;;2.33;2.10;;;15.40;85.00;;;;;;5097619;28;20476;-68
2021/04/12 13:51:28;;;;;;;6.70;3.30;;;16.30;83.00;;;;;;5096475;28;20473;-67
2021/04/12 13:53:58;;;;;;;3.00;2.60;;;15.00;79.00;;;;;;5104897;28;20804;-69
2021/04/12 13:56:29;;;;;;;2.77;2.40;;;13.70;79.70;;;;;;5102765;28;20460;-68
2021/04/12 13:59:03;;;;;;;2.30;2.10;;;12.50;84.70;;;;;;5099057;28;20453;-67
2021/04/12 14:01:43;;;;;;;2.70;2.50;;;11.90;84.50;;;;;;5093765;28;20456;-69
2021/04/12 14:04:12;;;;;;;2.13;1.93;;;11.70;90.10;;;;;;5098286;28;20651;-69
2021/04/12 14:06:46;;;;;;;3.80;2.37;;;11.60;89.80;;;;;;5099069;28;20476;-69
2021/04/12 14:09:19;;;;;;;4.93;4.33;;;11.70;88.10;;;;;;5101195;28;20988;-69
2021/04/12 14:11:53;;;;;;;2.40;1.87;;;11.60;88.20;;;;;;5099093;28;20506;-68
2021/04/12 14:14:23;;;;;;;2.73;2.53;;;11.70;89.60;;;;;;5100790;28;20502;-68
2021/04/12 14:16:59;;;;;;;2.43;2.00;;;11.60;92.00;;;;;;5100757;28;20453;-68
2021/04/12 14:19:30;;;;;;;2.10;1.90;;;11.40;92.20;;;;;;5097341;28;20533;-68
2021/04/12 14:22:06;;;;;;;3.20;2.13;;;11.20;92.00;;;;;;5099586;28;20453;-68
2021/04/12 14:24:37;;;;;;;2.10;1.73;;;10.60;92.40;;;;;;5101707;28;20449;-67
2021/04/12 14:27:07;;;;;;;2.17;1.10;;;10.20;94.90;;;;;;5098659;28;20495;-68
2021/04/12 14:29:38;;;;;;;2.03;1.60;;;10.00;96.70;;;;;;5095922;28;20538;-67
2021/04/12 14:32:10;;;;;;;3.70;2.17;;;9.90;99.90;;;;;;5096003;28;20552;-69
2021/04/12 14:34:42;;;;;;;1.90;1.70;;;9.90;99.90;;;;;;5099954;28;20972;-69
2021/04/12 14:37:14;;;;;;;1.83;1.40;;;9.80;98.60;;;;;;5102219;28;20444;-67
2021/04/12 14:39:41;;;;;;;2.30;2.10;;;10.00;98.00;;;;;;5097660;28;20986;-67